Time;durP1;ratioP1;P1;durP2;ratioP2;P2;SDS_P1;SDS_P2;PMS_P1;PMS_P2;Temp;Humidity;BMP_temperature;BMP_pressure;BME280_temperature;BME280_humidity;BME280_pressure;Samples;Min_cycle;Max_cycle;Signal;HPM_P1;HPM_P2
2022/11/02 18:42:20;;;;;;;6.97;2.33;;;;;;;11.33;89.50;101683.84;5053335;28;20086;-74
2022/11/02 18:44:46;;;;;;;11.05;3.00;;;;;;;11.23;91.16;101676.00;5061011;28;20048;-74
2022/11/02 18:47:11;;;;;;;15.38;5.07;;;;;;;11.18;88.85;101674.28;5063771;28;20031;-74
2022/11/02 18:49:36;;;;;;;19.02;5.00;;;;;;;11.16;89.22;101665.44;5098362;22;20036;-74
2022/11/02 18:52:02;;;;;;;15.85;5.88;;;;;;;11.16;89.54;101660.63;5055401;28;20113;-73
2022/11/02 18:54:27;;;;;;;12.70;5.03;;;;;;;11.16;89.24;101659.81;5052538;28;20056;-74
2022/11/02 18:56:53;;;;;;;13.82;3.90;;;;;;;11.14;89.32;101662.97;5051121;28;20053;-74
2022/11/02 18:59:19;;;;;;;10.88;4.38;;;;;;;11.10;88.93;101644.47;5069163;28;20480;-74
2022/11/02 19:01:44;;;;;;;13.43;4.30;;;;;;;11.20;89.78;101649.53;5044142;28;20031;-74
2022/11/02 19:04:09;;;;;;;17.20;3.90;;;;;;;11.09;88.73;101652.06;5063459;28;20108;-75
2022/11/02 19:09:21;;;;;;;17.50;4.45;;;;;;;11.09;88.08;101640.84;5068478;28;20425;-75
2022/11/02 19:11:59;;;;;;;11.57;3.35;;;;;;;11.05;88.86;101642.75;5056730;28;20115;-74
2022/11/02 19:14:24;;;;;;;13.95;3.70;;;;;;;11.00;88.62;101637.41;5061596;28;20025;-74
2022/11/02 19:16:50;;;;;;;8.82;5.38;;;;;;;10.99;88.20;101644.19;5044187;28;20550;-73
2022/11/02 19:19:15;;;;;;;11.60;4.60;;;;;;;11.03;88.24;101633.91;5047415;28;20021;-74
2022/11/02 19:21:41;;;;;;;9.20;3.05;;;;;;;10.98;88.92;101625.75;5057148;28;20070;-74
2022/11/02 19:24:06;;;;;;;16.20;4.28;;;;;;;11.04;88.64;101621.50;5065252;28;20021;-74
2022/11/02 19:26:35;;;;;;;38.83;16.95;;;;;;;11.05;89.14;101619.53;5060663;28;20040;-74
2022/11/02 19:29:01;;;;;;;42.20;20.65;;;;;;;11.05;89.28;101617.53;5054047;28;20503;-74
2022/11/02 19:31:26;;;;;;;22.70;5.75;;;;;;;11.02;87.59;101615.44;5055644;28;20032;-74
2022/11/02 19:33:52;;;;;;;21.02;8.60;;;;;;;10.98;88.48;101600.53;5058457;28;20411;-74
2022/11/02 19:36:17;;;;;;;22.55;7.80;;;;;;;10.99;87.76;101594.59;5058106;28;20141;-73
2022/11/02 19:38:42;;;;;;;20.48;11.10;;;;;;;11.01;87.18;101599.03;5040517;28;20032;-74
2022/11/02 19:41:11;;;;;;;15.98;6.05;;;;;;;11.01;87.66;101579.41;5036490;28;20040;-74
2022/11/02 19:43:38;;;;;;;21.70;6.05;;;;;;;11.06;87.67;101588.34;5033014;28;20395;-74
2022/11/02 19:46:10;;;;;;;21.23;5.85;;;;;;;10.99;87.55;101577.78;5053375;28;20371;-76
2022/11/02 19:48:36;;;;;;;16.38;5.50;;;;;;;10.99;87.67;101582.56;5050574;28;20443;-75
2022/11/02 19:51:05;;;;;;;23.08;6.85;;;;;;;11.11;86.75;101587.22;5052420;28;20049;-74
2022/11/02 19:53:31;;;;;;;34.25;18.77;;;;;;;11.12;86.67;101580.47;5053410;28;20035;-74
2022/11/02 19:55:56;;;;;;;22.05;8.40;;;;;;;11.18;85.74;101585.44;5046450;28;20696;-73
2022/11/02 19:58:21;;;;;;;17.90;7.72;;;;;;;11.11;85.35;101576.88;5054680;28;20032;-73
2022/11/02 20:00:47;;;;;;;16.08;5.97;;;;;;;11.14;85.48;101576.13;5039453;28;20464;-74
2022/11/02 20:03:12;;;;;;;24.23;11.18;;;;;;;11.12;86.18;101572.88;5027437;28;20032;-73
2022/11/02 20:05:37;;;;;;;17.73;8.30;;;;;;;11.06;86.20;101565.91;5050089;28;21379;-73
2022/11/02 20:08:03;;;;;;;13.02;5.15;;;;;;;11.06;85.29;101560.31;5029643;28;20123;-73
2022/11/02 20:10:28;;;;;;;13.65;5.75;;;;;;;11.14;85.21;101559.31;5049538;28;20064;-73
2022/11/02 20:12:54;;;;;;;13.88;5.25;;;;;;;11.16;87.10;101559.75;5045893;28;20463;-73
2022/11/02 20:15:19;;;;;;;16.05;6.78;;;;;;;11.09;85.00;101556.81;5046415;28;20036;-73
2022/11/02 20:17:44;;;;;;;15.25;6.28;;;;;;;11.12;84.76;101558.88;5043334;28;20090;-74
2022/11/02 20:20:10;;;;;;;11.45;5.25;;;;;;;11.14;85.06;101556.50;5044090;28;20063;-75
2022/11/02 20:22:37;;;;;;;12.25;3.92;;;;;;;11.10;84.63;101552.81;5050084;28;20109;-74
2022/11/02 20:25:04;;;;;;;11.10;4.05;;;;;;;11.01;85.36;101546.59;5046303;28;21376;-73
2022/11/02 20:27:29;;;;;;;13.18;2.75;;;;;;;11.01;85.18;101541.00;5046603;28;20053;-74
2022/11/02 20:29:55;;;;;;;10.52;3.03;;;;;;;11.03;85.63;101551.84;5047279;28;20033;-73
2022/11/02 20:37:24;;;;;;;8.70;3.67;;;;;;;11.12;85.45;101549.66;5004150;28;20821;-75
2022/11/02 20:39:49;;;;;;;12.80;3.70;;;;;;;11.08;86.71;101551.56;4992469;28;20042;-74
2022/11/02 20:42:15;;;;;;;12.48;3.53;;;;;;;11.07;83.71;101544.31;4993461;28;20740;-75
2022/11/02 20:44:42;;;;;;;13.20;3.28;;;;;;;11.01;84.14;101546.59;5036361;22;20491;-75
2022/11/02 20:47:07;;;;;;;9.98;3.70;;;;;;;11.11;85.38;101548.84;5024290;28;20037;-74
2022/11/02 20:49:32;;;;;;;11.07;3.20;;;;;;;11.04;85.13;101539.44;5023781;28;20518;-75
2022/11/02 20:51:58;;;;;;;10.20;3.05;;;;;;;11.01;83.50;101535.41;5020436;28;20385;-75
2022/11/02 20:54:23;;;;;;;11.63;4.40;;;;;;;11.00;84.58;101550.56;5031467;28;20035;-75
2022/11/02 20:56:49;;;;;;;7.22;4.30;;;;;;;11.02;84.09;101541.81;5030104;28;20080;-75
2022/11/02 20:59:14;;;;;;;15.70;5.18;;;;;;;11.02;83.28;101531.41;5021901;28;20041;-75
2022/11/02 21:01:40;;;;;;;10.40;5.18;;;;;;;11.00;83.81;101533.75;5024479;28;20028;-75
2022/11/02 21:04:05;;;;;;;10.90;4.38;;;;;;;11.03;84.29;101526.63;5028068;28;20544;-75
2022/11/02 21:06:31;;;;;;;12.57;3.75;;;;;;;11.07;83.58;101522.72;5027313;28;20033;-75
2022/11/02 21:08:59;;;;;;;11.18;6.53;;;;;;;11.06;83.50;101525.91;5022592;28;21852;-75
2022/11/02 21:14:08;;;;;;;10.93;4.63;;;;;;;11.05;83.68;101518.69;5030473;28;21324;-75
2022/11/02 21:16:34;;;;;;;17.00;5.72;;;;;;;11.07;83.61;101510.69;5032738;28;20012;-75
2022/11/02 21:18:59;;;;;;;11.63;3.50;;;;;;;11.03;84.87;101510.63;5025719;28;20025;-75
2022/11/02 21:21:24;;;;;;;12.98;3.88;;;;;;;10.97;84.00;101512.09;5022729;28;20044;-75
2022/11/02 21:23:50;;;;;;;16.35;3.75;;;;;;;11.03;83.79;101502.22;5030880;28;20041;-75
2022/11/02 21:26:15;;;;;;;12.20;4.00;;;;;;;11.07;84.67;101505.09;5025121;28;20029;-74
2022/11/02 21:28:43;;;;;;;10.82;4.57;;;;;;;11.04;84.68;101511.44;5021436;28;20033;-75
2022/11/02 21:31:15;;;;;;;10.18;2.65;;;;;;;11.01;83.90;101495.38;5026368;28;20395;-75
2022/11/02 21:33:41;;;;;;;4.93;2.40;;;;;;;11.06;85.18;101504.28;5031243;28;20435;-75
2022/11/02 21:36:06;;;;;;;12.07;2.70;;;;;;;11.08;84.96;101496.31;5031718;28;20032;-75
2022/11/02 21:38:32;;;;;;;19.20;3.65;;;;;;;11.03;84.69;101498.63;5029338;28;20025;-75
2022/11/02 21:41:00;;;;;;;17.05;3.35;;;;;;;10.97;84.44;101498.09;5023287;28;20480;-74
2022/11/02 21:43:26;;;;;;;18.00;3.42;;;;;;;11.04;85.05;101489.84;5026674;28;20033;-75
2022/11/02 21:45:53;;;;;;;11.38;3.33;;;;;;;11.04;84.56;101492.63;5037006;28;20033;-75
2022/11/02 21:48:20;;;;;;;13.60;4.18;;;;;;;11.02;84.38;101474.56;5043541;28;20357;-75
2022/11/02 21:51:01;;;;;;;8.82;3.08;;;;;;;11.11;84.71;101478.81;5046215;28;20082;-75
2022/11/02 21:53:26;;;;;;;14.57;2.70;;;;;;;11.07;84.47;101472.31;5041686;28;20075;-75
2022/11/02 21:56:03;;;;;;;9.85;2.78;;;;;;;11.06;84.94;101476.28;5020281;28;20032;-74
2022/11/02 21:58:29;;;;;;;12.45;3.58;;;;;;;11.04;84.65;101472.22;5040984;28;20045;-75
2022/11/02 22:03:44;;;;;;;13.45;3.10;;;;;;;11.06;84.96;101479.06;5047713;28;20566;-75
2022/11/02 22:06:09;;;;;;;12.60;2.83;;;;;;;11.06;85.34;101481.88;5048044;28;20021;-75
2022/11/02 22:08:37;;;;;;;9.20;2.53;;;;;;;11.08;86.36;101479.53;5043673;28;20039;-75
2022/11/02 22:11:07;;;;;;;10.40;3.03;;;;;;;10.99;85.46;101487.34;5040402;28;20032;-75
2022/11/02 22:13:34;;;;;;;7.53;3.15;;;;;;;11.04;85.41;101478.63;5047527;28;20032;-75
2022/11/02 22:16:14;;;;;;;12.35;2.92;;;;;;;10.98;85.88;101468.88;5051956;28;20019;-76
2022/11/02 22:18:41;;;;;;;11.52;2.28;;;;;;;11.00;85.53;101472.13;5051600;28;20112;-75
2022/11/02 22:21:06;;;;;;;8.93;3.03;;;;;;;11.06;86.12;101462.25;5051265;28;20078;-75
2022/11/02 22:23:32;;;;;;;13.00;3.13;;;;;;;10.97;85.84;101453.28;5057235;28;20550;-75
2022/11/02 22:26:03;;;;;;;14.70;3.17;;;;;;;11.03;85.58;101443.41;5046935;28;20043;-75
2022/11/02 22:28:33;;;;;;;14.02;3.90;;;;;;;11.02;87.34;101436.16;5053732;28;20116;-74
2022/11/02 22:30:58;;;;;;;15.88;3.97;;;;;;;10.98;86.71;101429.66;5053527;28;20116;-74
2022/11/02 22:33:25;;;;;;;10.63;3.35;;;;;;;11.01;87.21;101431.75;5051597;28;20219;-75
2022/11/02 22:35:51;;;;;;;8.73;3.33;;;;;;;11.03;87.15;101415.38;5054922;28;20383;-75
2022/11/02 22:41:01;;;;;;;16.55;3.20;;;;;;;11.03;86.78;101412.59;5053248;28;20035;-75
2022/11/02 22:43:26;;;;;;;15.00;4.35;;;;;;;11.05;86.68;101406.63;5037022;28;20597;-74
2022/11/02 22:46:02;;;;;;;16.75;3.10;;;;;;;11.02;86.51;101405.34;5040379;28;20045;-74
2022/11/02 22:48:28;;;;;;;13.13;3.47;;;;;;;11.07;86.51;101393.03;5036062;28;20450;-75
2022/11/02 22:50:53;;;;;;;12.10;3.30;;;;;;;11.03;86.25;101398.59;5039718;28;20033;-74
2022/11/02 22:53:19;;;;;;;13.80;4.07;;;;;;;11.06;86.13;101392.22;5032243;28;20036;-75
2022/11/02 22:55:44;;;;;;;10.32;3.05;;;;;;;11.01;86.82;101402.94;5032057;28;20120;-75
2022/11/02 22:58:09;;;;;;;12.65;3.50;;;;;;;11.05;86.75;101401.81;5030145;28;20033;-75
2022/11/02 23:00:34;;;;;;;7.28;2.75;;;;;;;11.08;88.13;101401.06;5031308;28;20037;-75
2022/11/02 23:03:00;;;;;;;13.52;3.55;;;;;;;10.98;86.32;101393.25;5036025;28;20063;-75
2022/11/02 23:05:25;;;;;;;19.27;3.58;;;;;;;11.00;86.85;101382.50;5031074;28;20488;-75
2022/11/02 23:07:51;;;;;;;9.15;2.80;;;;;;;11.04;86.91;101380.59;5028532;28;20128;-75
2022/11/02 23:13:00;;;;;;;14.55;2.58;;;;;;;11.02;86.12;101380.13;5021503;28;20703;-77
2022/11/02 23:15:25;;;;;;;12.10;4.10;;;;;;;11.03;86.49;101375.38;5029299;28;20021;-75
2022/11/02 23:17:51;;;;;;;13.52;3.97;;;;;;;11.05;87.07;101376.63;5028953;28;20045;-74
2022/11/02 23:20:16;;;;;;;10.02;3.38;;;;;;;11.05;87.25;101362.59;5024841;28;20036;-74
2022/11/02 23:25:11;;;;;;;10.95;2.83;;;;;;;11.02;86.17;101362.53;5027193;28;20060;-75
2022/11/02 23:33:27;;;;;;;13.10;2.78;;;;;;;11.05;85.81;101345.81;5035002;28;20082;-75
2022/11/02 23:36:11;;;;;;;12.65;3.00;;;;;;;11.08;86.24;101345.03;5028228;28;20079;-74
2022/11/02 23:41:21;;;;;;;13.35;3.10;;;;;;;11.05;85.66;101339.41;5034144;28;20025;-74
2022/11/02 23:43:46;;;;;;;12.05;3.08;;;;;;;11.03;86.05;101347.34;5030849;28;20029;-75
2022/11/02 23:46:12;;;;;;;13.30;3.47;;;;;;;11.12;86.74;101333.91;5029172;28;20037;-75
2022/11/02 23:48:40;;;;;;;14.60;3.03;;;;;;;11.08;85.62;101325.44;5034026;28;20037;-75
2022/11/02 23:56:51;;;;;;;14.57;3.83;;;;;;;11.10;86.95;101323.06;5038737;28;20083;-75
2022/11/02 23:59:17;;;;;;;6.10;2.72;;;;;;;11.06;86.25;101330.59;5040067;28;20486;-75
